Time,TemperatureF,DewpointF,PressureIn,WindDirection,WindDirectionDegrees,WindSpeedMPH,WindSpeedGustMPH,Humidity,HourlyPrecipIn,Conditions,Clouds,dailyrainin,SoftwareType,DateUTC
2013-04-30 00:01:00,62.7,61.2,29.99,SW,223,4.0,8.0,95,0.00,,,0.05,Wunderground v.1.15,2013-04-30 04:01:00,
2013-04-30 00:02:00,62.8,61.3,29.98,SW,225,3.0,8.0,95,0.00,,,0.05,Wunderground v.1.15,2013-04-30 04:02:00,
2013-04-30 00:07:00,62.8,61.3,29.99,SW,235,6.0,8.0,95,0.00,,,0.05,Wunderground v.1.15,2013-04-30 04:07:00,
2013-04-30 00:12:00,62.8,61.3,29.99,WSW,238,4.0,6.0,95,0.00,,,0.05,Wunderground v.1.15,2013-04-30 04:12:00,
2013-04-30 00:18:00,62.7,61.2,29.98,WSW,239,5.0,6.0,95,0.00,,,0.05,Wunderground v.1.15,2013-04-30 04:18:00,
2013-04-30 00:23:00,62.6,60.8,29.98,WSW,239,0.0,3.0,94,0.00,,,0.05,Wunderground v.1.15,2013-04-30 04:23:00,
2013-04-30 00:28:00,62.5,60.7,29.99,WSW,239,0.0,3.0,94,0.00,,,0.05,Wunderground v.1.15,2013-04-30 04:28:00,
2013-04-30 00:33:00,62.6,61.1,29.98,WSW,239,0.0,3.0,95,0.00,,,0.05,Wunderground v.1.15,2013-04-30 04:33:00,
2013-04-30 00:38:00,63.1,61.6,29.98,WSW,239,4.0,4.0,95,0.00,,,0.05,Wunderground v.1.15,2013-04-30 04:38:00,
2013-04-30 00:43:00,63.5,62.0,29.98,WSW,248,4.0,5.0,95,0.00,,,0.05,Wunderground v.1.15,2013-04-30 04:43:00,
2013-04-30 00:48:00,63.8,62.3,29.98,WSW,256,3.0,5.0,95,0.00,,,0.05,Wunderground v.1.15,2013-04-30 04:48:00,
2013-04-30 00:53:00,63.9,62.4,29.98,WSW,257,4.0,6.0,95,0.00,,,0.05,Wunderground v.1.15,2013-04-30 04:53:00,
2013-04-30 00:58:00,63.9,62.4,29.99,WSW,257,0.0,6.0,95,0.00,,,0.05,Wunderground v.1.15,2013-04-30 04:58:00,
2013-04-30 01:03:00,63.9,62.4,29.98,WSW,257,2.0,4.0,95,0.00,,,0.05,Wunderground v.1.15,2013-04-30 05:03:00,
2013-04-30 01:09:00,63.9,62.4,29.98,WSW,257,4.0,4.0,95,0.00,,,0.05,Wunderground v.1.15,2013-04-30 05:09:00,
2013-04-30 01:14:00,64.0,62.5,29.98,WSW,257,3.0,4.0,95,0.00,,,0.05,Wunderground v.1.15,2013-04-30 05:14:00,
2013-04-30 01:19:00,63.9,62.4,29.98,WSW,257,2.0,4.0,95,0.00,,,0.05,Wunderground v.1.15,2013-04-30 05:19:00,
2013-04-30 01:24:00,63.6,62.1,29.98,WSW,257,2.0,4.0,95,0.00,,,0.05,Wunderground v.1.15,2013-04-30 05:24:00,
2013-04-30 01:29:00,63.5,62.0,29.98,WSW,257,6.0,6.0,95,0.00,,,0.05,Wunderground v.1.15,2013-04-30 05:29:00,
2013-04-30 01:34:00,63.5,62.0,29.98,WSW,257,2.0,5.0,95,0.00,,,0.05,Wunderground v.1.15,2013-04-30 05:34:00,
2013-04-30 01:39:00,63.3,61.8,29.98,WSW,258,4.0,6.0,95,0.00,,,0.05,Wunderground v.1.15,2013-04-30 05:39:00,
2013-04-30 01:44:00,63.1,61.6,29.99,WSW,258,0.0,4.0,95,0.00,,,0.05,Wunderground v.1.15,2013-04-30 05:44:00,
2013-04-30 01:49:00,62.9,61.4,29.98,WSW,258,0.0,4.0,95,0.00,,,0.05,Wunderground v.1.15,2013-04-30 05:49:00,
2013-04-30 01:55:00,62.9,61.4,29.98,WSW,258,0.0,3.0,95,0.00,,,0.05,Wunderground v.1.15,2013-04-30 05:55:00,
2013-04-30 02:00:00,62.8,61.3,29.99,WSW,258,3.0,3.0,95,0.00,,,0.05,Wunderground v.1.15,2013-04-30 06:00:00,
2013-04-30 02:05:00,62.8,61.3,29.98,WSW,258,0.0,3.0,95,0.00,,,0.05,Wunderground v.1.15,2013-04-30 06:05:00,
2013-04-30 02:10:00,62.7,61.2,29.98,WSW,258,3.0,3.0,95,0.00,,,0.05,Wunderground v.1.15,2013-04-30 06:10:00,
2013-04-30 02:15:00,62.8,61.3,29.98,WSW,258,0.0,3.0,95,0.00,,,0.05,Wunderground v.1.15,2013-04-30 06:15:00,
2013-04-30 02:20:00,62.9,61.4,29.98,WSW,258,1.0,1.0,95,0.00,,,0.05,Wunderground v.1.15,2013-04-30 06:20:00,
2013-04-30 02:25:00,63.2,62.0,29.97,WSW,258,0.0,2.0,96,0.00,,,0.05,Wunderground v.1.15,2013-04-30 06:25:00,
2013-04-30 02:30:00,63.3,62.1,29.98,WSW,258,3.0,3.0,96,0.00,,,0.05,Wunderground v.1.15,2013-04-30 06:30:00,
2013-04-30 02:35:00,63.2,62.0,29.97,WSW,258,1.0,4.0,96,0.00,,,0.05,Wunderground v.1.15,2013-04-30 06:35:00,
2013-04-30 02:41:00,63.2,62.0,29.98,WSW,258,3.0,5.0,96,0.00,,,0.05,Wunderground v.1.15,2013-04-30 06:41:00,
2013-04-30 02:46:00,63.3,62.1,29.97,WSW,258,0.0,5.0,96,0.00,,,0.05,Wunderground v.1.15,2013-04-30 06:46:00,
2013-04-30 02:51:00,63.3,62.1,29.97,West,259,2.0,3.0,96,0.00,,,0.05,Wunderground v.1.15,2013-04-30 06:51:00,
2013-04-30 02:56:00,63.3,62.1,29.98,WSW,258,2.0,5.0,96,0.00,,,0.05,Wunderground v.1.15,2013-04-30 06:56:00,
2013-04-30 03:04:00,63.2,62.0,29.98,WSW,258,0.0,3.0,96,0.00,,,0.05,Wunderground v.1.15,2013-04-30 07:04:00,
2013-04-30 03:09:00,63.1,61.9,29.97,West,259,0.0,4.0,96,0.00,,,0.05,Wunderground v.1.15,2013-04-30 07:09:00,
2013-04-30 03:14:00,63.2,62.0,29.97,West,260,5.0,5.0,96,0.00,,,0.05,Wunderground v.1.15,2013-04-30 07:14:00,
2013-04-30 03:19:00,63.3,62.1,29.97,West,263,2.0,5.0,96,0.00,,,0.05,Wunderground v.1.15,2013-04-30 07:19:00,
2013-04-30 03:24:00,63.3,62.1,29.97,West,263,2.0,5.0,96,0.00,,,0.05,Wunderground v.1.15,2013-04-30 07:24:00,
2013-04-30 03:29:00,63.1,61.6,29.98,West,263,0.0,5.0,95,0.00,,,0.05,Wunderground v.1.15,2013-04-30 07:29:00,
2013-04-30 03:34:00,63.1,61.9,29.98,West,263,0.0,3.0,96,0.00,,,0.05,Wunderground v.1.15,2013-04-30 07:34:00,
2013-04-30 03:39:00,63.1,61.9,29.98,West,264,4.0,5.0,96,0.00,,,0.05,Wunderground v.1.15,2013-04-30 07:39:00,
2013-04-30 03:44:00,63.1,61.9,29.98,West,264,0.0,3.0,96,0.00,,,0.05,Wunderground v.1.15,2013-04-30 07:44:00,
2013-04-30 03:50:00,63.4,62.2,29.98,West,264,3.0,3.0,96,0.00,,,0.05,Wunderground v.1.15,2013-04-30 07:50:00,
2013-04-30 03:55:00,63.8,62.6,29.98,West,264,3.0,5.0,96,0.00,,,0.05,Wunderground v.1.15,2013-04-30 07:55:00,
2013-04-30 04:00:00,63.9,62.7,29.98,West,264,3.0,3.0,96,0.00,,,0.05,Wunderground v.1.15,2013-04-30 08:00:00,
2013-04-30 04:05:00,63.9,62.7,29.98,West,264,4.0,5.0,96,0.00,,,0.05,Wunderground v.1.15,2013-04-30 08:05:00,
2013-04-30 04:12:00,64.0,62.8,29.98,West,264,4.0,5.0,96,0.00,,,0.05,Wunderground v.1.15,2013-04-30 08:12:00,
2013-04-30 04:17:00,64.0,62.8,29.98,West,265,5.0,5.0,96,0.00,,,0.05,Wunderground v.1.15,2013-04-30 08:17:00,
2013-04-30 04:22:00,64.1,62.9,29.98,WNW,292,5.0,7.0,96,0.00,,,0.05,Wunderground v.1.15,2013-04-30 08:22:00,
2013-04-30 04:27:00,64.1,62.9,29.98,WNW,297,6.0,7.0,96,0.00,,,0.05,Wunderground v.1.15,2013-04-30 08:27:00,
2013-04-30 04:33:00,64.2,63.0,29.98,WNW,297,6.0,6.0,96,0.00,,,0.05,Wunderground v.1.15,2013-04-30 08:33:00,
2013-04-30 04:38:00,64.1,62.6,29.98,WNW,298,6.0,6.0,95,0.00,,,0.05,Wunderground v.1.15,2013-04-30 08:38:00,
2013-04-30 04:43:00,64.1,62.6,29.98,WNW,298,3.0,5.0,95,0.00,,,0.05,Wunderground v.1.15,2013-04-30 08:43:00,
2013-04-30 04:48:00,64.1,62.9,29.98,NW,306,7.0,9.0,96,0.00,,,0.05,Wunderground v.1.15,2013-04-30 08:48:00,
2013-04-30 04:53:00,64.1,62.9,29.98,NNW,346,6.0,10.0,96,0.00,,,0.05,Wunderground v.1.15,2013-04-30 08:53:00,
2013-04-30 04:58:00,64.1,62.9,29.98,North,10,6.0,12.0,96,0.00,,,0.05,Wunderground v.1.15,2013-04-30 08:58:00,
2013-04-30 05:03:00,64.0,62.8,29.98,NNE,15,11.0,12.0,96,0.00,,,0.05,Wunderground v.1.15,2013-04-30 09:03:00,
2013-04-30 05:09:00,64.0,62.8,29.98,NNE,19,9.0,12.0,96,0.00,,,0.05,Wunderground v.1.15,2013-04-30 09:09:00,
2013-04-30 05:14:00,64.0,62.8,29.98,NNE,29,7.0,11.0,96,0.00,,,0.05,Wunderground v.1.15,2013-04-30 09:14:00,
2013-04-30 05:19:00,63.9,62.7,29.98,NNE,27,8.0,11.0,96,0.00,,,0.05,Wunderground v.1.15,2013-04-30 09:19:00,
2013-04-30 05:24:00,63.8,62.6,29.98,NNE,30,9.0,12.0,96,0.00,,,0.05,Wunderground v.1.15,2013-04-30 09:24:00,
2013-04-30 05:29:00,63.7,62.5,29.98,NNE,31,10.0,12.0,96,0.00,,,0.05,Wunderground v.1.15,2013-04-30 09:29:00,
2013-04-30 05:34:00,63.6,62.4,29.98,NE,36,13.0,13.0,96,0.00,,,0.05,Wunderground v.1.15,2013-04-30 09:34:00,
2013-04-30 05:39:00,63.6,62.4,29.98,NE,34,7.0,13.0,96,0.00,,,0.05,Wunderground v.1.15,2013-04-30 09:39:00,
2013-04-30 05:44:00,63.6,62.4,29.99,NE,36,9.0,11.0,96,0.00,,,0.05,Wunderground v.1.15,2013-04-30 09:44:00,
2013-04-30 05:49:00,63.6,62.4,29.99,NE,36,10.0,11.0,96,0.00,,,0.05,Wunderground v.1.15,2013-04-30 09:49:00,
2013-04-30 05:54:00,63.7,62.5,29.99,NE,38,7.0,11.0,96,0.00,,,0.05,Wunderground v.1.15,2013-04-30 09:54:00,
2013-04-30 05:59:00,63.7,62.5,29.99,NE,40,10.0,12.0,96,0.00,,,0.05,Wunderground v.1.15,2013-04-30 09:59:00,
2013-04-30 06:04:00,63.7,62.5,29.99,NE,36,9.0,11.0,96,0.00,,,0.05,Wunderground v.1.15,2013-04-30 10:04:00,
2013-04-30 06:09:00,63.7,62.5,29.99,NE,40,11.0,12.0,96,0.00,,,0.05,Wunderground v.1.15,2013-04-30 10:09:00,
2013-04-30 06:15:00,63.6,62.4,30.00,NNE,33,8.0,12.0,96,0.00,,,0.05,Wunderground v.1.15,2013-04-30 10:15:00,
2013-04-30 06:20:00,63.6,62.4,30.00,NNE,30,7.0,9.0,96,0.00,,,0.05,Wunderground v.1.15,2013-04-30 10:20:00,
2013-04-30 06:25:00,63.5,62.3,30.00,NE,34,6.0,10.0,96,0.00,,,0.05,Wunderground v.1.15,2013-04-30 10:25:00,
2013-04-30 06:30:00,63.5,62.3,30.00,NE,37,6.0,7.0,96,0.00,,,0.05,Wunderground v.1.15,2013-04-30 10:30:00,
2013-04-30 06:35:00,63.5,62.3,30.00,NE,40,7.0,11.0,96,0.00,,,0.05,Wunderground v.1.15,2013-04-30 10:35:00,
2013-04-30 06:40:00,63.5,62.3,30.00,NE,40,10.0,10.0,96,0.00,,,0.05,Wunderground v.1.15,2013-04-30 10:40:00,
2013-04-30 06:45:00,63.4,62.2,30.00,NE,42,8.0,11.0,96,0.00,,,0.05,Wunderground v.1.15,2013-04-30 10:45:00,
2013-04-30 06:50:00,63.4,62.2,30.01,NE,43,9.0,9.0,96,0.00,,,0.05,Wunderground v.1.15,2013-04-30 10:50:00,
2013-04-30 06:55:00,63.4,62.5,30.01,NE,42,5.0,9.0,97,0.00,,,0.05,Wunderground v.1.15,2013-04-30 10:55:00,
2013-04-30 07:00:00,63.4,62.2,30.01,NE,40,8.0,8.0,96,0.00,,,0.05,Wunderground v.1.15,2013-04-30 11:00:00,
2013-04-30 07:05:00,63.4,62.2,30.01,NE,39,8.0,12.0,96,0.00,,,0.05,Wunderground v.1.15,2013-04-30 11:05:00,
2013-04-30 07:10:00,63.5,62.3,30.01,NE,36,9.0,11.0,96,0.00,,,0.05,Wunderground v.1.15,2013-04-30 11:10:00,
2013-04-30 07:15:00,63.6,62.4,30.01,NE,38,9.0,13.0,96,0.00,,,0.05,Wunderground v.1.15,2013-04-30 11:15:00,
2013-04-30 07:20:00,63.6,62.4,30.01,NE,41,10.0,11.0,96,0.00,,,0.05,Wunderground v.1.15,2013-04-30 11:20:00,
2013-04-30 07:26:00,63.6,62.4,30.01,NE,37,7.0,11.0,96,0.00,,,0.05,Wunderground v.1.15,2013-04-30 11:26:00,
2013-04-30 07:31:00,63.5,62.3,30.02,NE,38,9.0,13.0,96,0.00,,,0.06,Wunderground v.1.15,2013-04-30 11:31:00,
2013-04-30 07:36:00,63.5,62.3,30.02,NE,40,8.0,13.0,96,0.00,,,0.06,Wunderground v.1.15,2013-04-30 11:36:00,
2013-04-30 07:41:00,63.5,62.3,30.02,NE,45,5.0,10.0,96,0.00,,,0.06,Wunderground v.1.15,2013-04-30 11:41:00,
2013-04-30 07:46:00,63.5,62.3,30.02,NE,42,6.0,11.0,96,0.00,,,0.06,Wunderground v.1.15,2013-04-30 11:46:00,
2013-04-30 07:51:00,63.5,62.3,30.03,NE,44,7.0,7.0,96,0.00,,,0.06,Wunderground v.1.15,2013-04-30 11:51:00,
2013-04-30 07:56:00,63.5,62.3,30.03,NE,44,4.0,9.0,96,0.00,,,0.06,Wunderground v.1.15,2013-04-30 11:56:00,
2013-04-30 08:01:00,63.5,62.3,30.02,NE,47,5.0,10.0,96,0.00,,,0.06,Wunderground v.1.15,2013-04-30 12:01:00,
2013-04-30 08:07:00,63.6,62.4,30.03,NE,46,5.0,10.0,96,0.00,,,0.06,Wunderground v.1.15,2013-04-30 12:07:00,
2013-04-30 08:12:00,63.6,62.4,30.03,NE,48,4.0,9.0,96,0.00,,,0.06,Wunderground v.1.15,2013-04-30 12:12:00,
2013-04-30 08:17:00,63.7,62.5,30.03,NE,49,6.0,9.0,96,0.00,,,0.06,Wunderground v.1.15,2013-04-30 12:17:00,
2013-04-30 08:22:00,63.7,62.5,30.03,NE,49,4.0,10.0,96,0.00,,,0.06,Wunderground v.1.15,2013-04-30 12:22:00,
2013-04-30 08:27:00,63.8,62.6,30.03,NE,51,10.0,10.0,96,0.00,,,0.06,Wunderground v.1.15,2013-04-30 12:27:00,
2013-04-30 08:32:00,63.9,62.7,30.03,NE,52,5.0,10.0,96,0.00,,,0.06,Wunderground v.1.15,2013-04-30 12:32:00,
2013-04-30 08:37:00,63.9,62.7,30.03,ENE,58,5.0,10.0,96,0.00,,,0.06,Wunderground v.1.15,2013-04-30 12:37:00,
2013-04-30 08:42:00,63.9,62.4,30.04,NE,49,6.0,11.0,95,0.00,,,0.06,Wunderground v.1.15,2013-04-30 12:42:00,
2013-04-30 08:47:00,63.9,62.7,30.04,NE,42,6.0,11.0,96,0.00,,,0.06,Wunderground v.1.15,2013-04-30 12:47:00,
2013-04-30 08:52:00,63.9,62.7,30.04,NE,40,9.0,10.0,96,0.00,,,0.06,Wunderground v.1.15,2013-04-30 12:52:00,
2013-04-30 08:58:00,63.9,62.4,30.04,NE,43,7.0,11.0,95,0.00,,,0.06,Wunderground v.1.15,2013-04-30 12:58:00,
2013-04-30 09:03:00,64.0,62.5,30.04,NE,41,7.0,11.0,95,0.00,,,0.06,Wunderground v.1.15,2013-04-30 13:03:00,
2013-04-30 09:08:00,64.1,62.6,30.04,NE,49,6.0,11.0,95,0.00,,,0.06,Wunderground v.1.15,2013-04-30 13:08:00,
2013-04-30 09:13:00,64.2,62.7,30.04,NE,45,8.0,8.0,95,0.00,,,0.06,Wunderground v.1.15,2013-04-30 13:13:00,
2013-04-30 09:18:00,64.2,62.7,30.04,NE,49,6.0,10.0,95,0.00,,,0.06,Wunderground v.1.15,2013-04-30 13:18:00,
2013-04-30 09:23:00,64.2,62.7,30.04,NE,51,9.0,12.0,95,0.00,,,0.06,Wunderground v.1.15,2013-04-30 13:23:00,
2013-04-30 09:28:00,64.2,62.7,30.04,NE,40,10.0,12.0,95,0.00,,,0.06,Wunderground v.1.15,2013-04-30 13:28:00,
2013-04-30 09:34:00,64.2,62.7,30.04,NE,44,9.0,12.0,95,0.00,,,0.06,Wunderground v.1.15,2013-04-30 13:34:00,
2013-04-30 09:39:00,64.3,62.8,30.04,NE,51,9.0,12.0,95,0.00,,,0.06,Wunderground v.1.15,2013-04-30 13:39:00,
2013-04-30 09:44:00,64.4,62.9,30.04,NE,40,12.0,12.0,95,0.00,,,0.06,Wunderground v.1.15,2013-04-30 13:44:00,
2013-04-30 09:49:00,64.5,63.0,30.04,NE,43,5.0,12.0,95,0.00,,,0.06,Wunderground v.1.15,2013-04-30 13:49:00,
2013-04-30 09:54:00,64.6,62.8,30.05,NE,55,6.0,10.0,94,0.00,,,0.06,Wunderground v.1.15,2013-04-30 13:54:00,
2013-04-30 09:59:00,64.7,62.9,30.05,NE,39,10.0,13.0,94,0.00,,,0.06,Wunderground v.1.15,2013-04-30 13:59:00,
2013-04-30 10:05:00,64.8,63.0,30.04,NE,49,16.0,16.0,94,0.00,,,0.06,Wunderground v.1.15,2013-04-30 14:05:00,
2013-04-30 10:10:00,64.6,62.5,30.04,NE,51,10.0,10.0,93,0.00,,,0.06,Wunderground v.1.15,2013-04-30 14:10:00,
2013-04-30 10:15:00,64.9,62.8,30.05,NE,53,8.0,15.0,93,0.00,,,0.06,Wunderground v.1.15,2013-04-30 14:15:00,
2013-04-30 10:20:00,64.9,62.5,30.04,NE,49,6.0,9.0,92,0.00,,,0.06,Wunderground v.1.15,2013-04-30 14:20:00,
2013-04-30 10:25:00,65.0,62.6,30.04,NE,52,9.0,12.0,92,0.00,,,0.06,Wunderground v.1.15,2013-04-30 14:25:00,
2013-04-30 10:30:00,65.1,62.7,30.04,NE,51,11.0,12.0,92,0.00,,,0.06,Wunderground v.1.15,2013-04-30 14:30:00,
2013-04-30 10:35:00,64.9,62.5,30.05,NE,51,10.0,16.0,92,0.00,,,0.06,Wunderground v.1.15,2013-04-30 14:35:00,
2013-04-30 10:40:00,64.9,62.5,30.05,ENE,70,7.0,10.0,92,0.00,,,0.06,Wunderground v.1.15,2013-04-30 14:40:00,
2013-04-30 10:45:00,65.0,62.6,30.05,NE,51,12.0,12.0,92,0.00,,,0.06,Wunderground v.1.15,2013-04-30 14:45:00,
2013-04-30 10:51:00,65.0,62.6,30.04,NE,55,7.0,10.0,92,0.00,,,0.06,Wunderground v.1.15,2013-04-30 14:51:00,
2013-04-30 10:56:00,64.9,62.5,30.05,NE,53,7.0,14.0,92,0.00,,,0.06,Wunderground v.1.15,2013-04-30 14:56:00,
2013-04-30 11:01:00,64.8,62.1,30.05,NE,53,12.0,14.0,91,0.00,,,0.06,Wunderground v.1.15,2013-04-30 15:01:00,
2013-04-30 11:06:00,64.9,62.2,30.05,NE,51,7.0,14.0,91,0.00,,,0.06,Wunderground v.1.15,2013-04-30 15:06:00,
2013-04-30 11:11:00,64.8,62.1,30.05,NE,51,11.0,14.0,91,0.00,,,0.06,Wunderground v.1.15,2013-04-30 15:11:00,
2013-04-30 11:16:00,64.8,62.1,30.05,NE,54,11.0,14.0,91,0.00,,,0.06,Wunderground v.1.15,2013-04-30 15:16:00,
2013-04-30 11:21:00,65.0,62.3,30.04,NE,51,10.0,13.0,91,0.00,,,0.06,Wunderground v.1.15,2013-04-30 15:21:00,
2013-04-30 11:26:00,65.2,62.5,30.05,NE,42,10.0,15.0,91,0.00,,,0.06,Wunderground v.1.15,2013-04-30 15:26:00,
2013-04-30 11:31:00,65.4,62.7,30.05,NE,53,7.0,12.0,91,0.00,,,0.06,Wunderground v.1.15,2013-04-30 15:31:00,
2013-04-30 11:36:00,65.2,62.2,30.05,NE,55,15.0,15.0,90,0.00,,,0.06,Wunderground v.1.15,2013-04-30 15:36:00,
2013-04-30 11:41:00,65.1,62.4,30.05,ENE,61,10.0,14.0,91,0.00,,,0.06,Wunderground v.1.15,2013-04-30 15:41:00,
2013-04-30 11:46:00,65.3,62.6,30.04,ENE,60,7.0,14.0,91,0.00,,,0.06,Wunderground v.1.15,2013-04-30 15:46:00,
2013-04-30 11:51:00,65.3,62.3,30.05,ENE,67,13.0,13.0,90,0.00,,,0.06,Wunderground v.1.15,2013-04-30 15:51:00,
2013-04-30 11:56:00,65.4,62.7,30.04,ENE,68,7.0,13.0,91,0.00,,,0.06,Wunderground v.1.15,2013-04-30 15:56:00,
2013-04-30 12:02:00,65.3,62.6,30.04,ENE,59,6.0,15.0,91,0.00,,,0.06,Wunderground v.1.15,2013-04-30 16:02:00,
2013-04-30 12:07:00,65.1,62.4,30.04,ENE,59,9.0,16.0,91,0.00,,,0.06,Wunderground v.1.15,2013-04-30 16:07:00,
2013-04-30 12:12:00,65.0,62.3,30.04,NE,54,10.0,11.0,91,0.00,,,0.00,Wunderground v.1.15,2013-04-30 16:12:00,
2013-04-30 12:17:00,65.0,62.6,30.04,ENE,61,12.0,13.0,92,0.00,,,0.00,Wunderground v.1.15,2013-04-30 16:17:00,
2013-04-30 12:22:00,64.8,62.4,30.04,ENE,67,4.0,11.0,92,0.00,,,0.00,Wunderground v.1.15,2013-04-30 16:22:00,
2013-04-30 12:27:00,64.4,62.0,30.04,ENE,76,9.0,12.0,92,0.00,,,0.00,Wunderground v.1.15,2013-04-30 16:27:00,
2013-04-30 12:32:00,64.1,62.0,30.04,ENE,64,4.0,11.0,93,0.00,,,0.00,Wunderground v.1.15,2013-04-30 16:32:00,
2013-04-30 12:37:00,63.8,61.7,30.04,ENE,66,6.0,11.0,93,0.00,,,0.00,Wunderground v.1.15,2013-04-30 16:37:00,
2013-04-30 12:42:00,63.5,61.4,30.04,ENE,67,9.0,11.0,93,0.00,,,0.00,Wunderground v.1.15,2013-04-30 16:42:00,
2013-04-30 12:47:00,63.6,61.5,30.04,ENE,64,7.0,12.0,93,0.00,,,0.00,Wunderground v.1.15,2013-04-30 16:47:00,
2013-04-30 12:52:00,63.7,61.9,30.04,ENE,77,6.0,12.0,94,0.00,,,0.00,Wunderground v.1.15,2013-04-30 16:52:00,
2013-04-30 12:57:00,63.5,61.4,30.04,East,80,10.0,14.0,93,0.00,,,0.00,Wunderground v.1.15,2013-04-30 16:57:00,
2013-04-30 13:03:00,63.2,61.4,30.03,East,91,11.0,12.0,94,0.00,,,0.00,Wunderground v.1.15,2013-04-30 17:03:00,
2013-04-30 13:08:00,63.3,61.5,30.03,East,84,10.0,14.0,94,0.00,,,0.00,Wunderground v.1.15,2013-04-30 17:08:00,
2013-04-30 13:13:00,62.9,61.1,30.03,ENE,77,11.0,12.0,94,0.00,,,0.00,Wunderground v.1.15,2013-04-30 17:13:00,
2013-04-30 13:18:00,63.1,61.6,30.03,NE,55,12.0,12.0,95,0.00,,,0.00,Wunderground v.1.15,2013-04-30 17:18:00,
2013-04-30 13:23:00,63.1,61.3,30.03,ENE,76,9.0,11.0,94,0.00,,,0.00,Wunderground v.1.15,2013-04-30 17:23:00,
2013-04-30 13:28:00,63.0,61.2,30.03,ENE,76,7.0,13.0,94,0.00,,,0.00,Wunderground v.1.15,2013-04-30 17:28:00,
2013-04-30 13:33:00,62.7,60.9,30.03,East,86,11.0,13.0,94,0.00,,,0.00,Wunderground v.1.15,2013-04-30 17:33:00,
2013-04-30 13:38:00,62.9,61.1,30.03,East,86,12.0,15.0,94,0.00,,,0.00,Wunderground v.1.15,2013-04-30 17:38:00,
2013-04-30 13:43:00,62.9,61.1,30.03,ENE,77,11.0,15.0,94,0.00,,,0.00,Wunderground v.1.15,2013-04-30 17:43:00,
2013-04-30 13:49:00,63.0,61.2,30.03,ENE,75,9.0,15.0,94,0.00,,,0.00,Wunderground v.1.15,2013-04-30 17:49:00,
2013-04-30 13:54:00,63.1,61.3,30.03,ENE,76,10.0,14.0,94,0.00,,,0.00,Wunderground v.1.15,2013-04-30 17:54:00,
2013-04-30 13:59:00,63.2,61.4,30.03,East,90,10.0,14.0,94,0.00,,,0.00,Wunderground v.1.15,2013-04-30 17:59:00,
2013-04-30 14:04:00,63.1,61.3,30.03,NE,51,11.0,15.0,94,0.00,,,0.00,Wunderground v.1.15,2013-04-30 18:04:00,
2013-04-30 14:09:00,63.5,61.7,30.03,East,85,9.0,15.0,94,0.00,,,0.00,Wunderground v.1.15,2013-04-30 18:09:00,
2013-04-30 14:14:00,63.5,61.7,30.03,ENE,71,13.0,14.0,94,0.00,,,0.00,Wunderground v.1.15,2013-04-30 18:14:00,
2013-04-30 14:19:00,63.9,62.1,30.03,East,89,10.0,14.0,94,0.00,,,0.00,Wunderground v.1.15,2013-04-30 18:19:00,
2013-04-30 14:24:00,64.1,62.0,30.03,ENE,61,7.0,14.0,93,0.00,,,0.00,Wunderground v.1.15,2013-04-30 18:24:00,
2013-04-30 14:29:00,64.1,62.0,30.03,ENE,71,8.0,14.0,93,0.00,,,0.00,Wunderground v.1.15,2013-04-30 18:29:00,
2013-04-30 14:34:00,64.4,62.3,30.03,ENE,59,10.0,13.0,93,0.00,,,0.00,Wunderground v.1.15,2013-04-30 18:34:00,
2013-04-30 14:39:00,64.5,62.4,30.03,ENE,71,14.0,14.0,93,0.00,,,0.00,Wunderground v.1.15,2013-04-30 18:39:00,
2013-04-30 14:45:00,64.5,62.4,30.03,ENE,69,11.0,15.0,93,0.00,,,0.00,Wunderground v.1.15,2013-04-30 18:45:00,
2013-04-30 14:50:00,64.5,62.1,30.03,East,82,10.0,10.0,92,0.00,,,0.00,Wunderground v.1.15,2013-04-30 18:50:00,
2013-04-30 14:55:00,64.4,62.0,30.03,ENE,70,10.0,14.0,92,0.00,,,0.00,Wunderground v.1.15,2013-04-30 18:55:00,
2013-04-30 15:00:00,64.8,62.4,30.03,ENE,74,6.0,9.0,92,0.00,,,0.00,Wunderground v.1.15,2013-04-30 19:00:00,
2013-04-30 15:05:00,64.9,62.2,30.03,ENE,73,10.0,12.0,91,0.00,,,0.00,Wunderground v.1.15,2013-04-30 19:05:00,
2013-04-30 15:10:00,64.6,61.9,30.03,ENE,65,9.0,12.0,91,0.00,,,0.00,Wunderground v.1.15,2013-04-30 19:10:00,
2013-04-30 15:15:00,64.8,62.1,30.03,ENE,73,9.0,14.0,91,0.00,,,0.00,Wunderground v.1.15,2013-04-30 19:15:00,
2013-04-30 15:20:00,64.8,62.1,30.02,East,85,10.0,11.0,91,0.00,,,0.00,Wunderground v.1.15,2013-04-30 19:20:00,
2013-04-30 15:25:00,64.8,62.1,30.03,ENE,59,6.0,14.0,91,0.00,,,0.00,Wunderground v.1.15,2013-04-30 19:25:00,
2013-04-30 15:30:00,64.9,62.5,30.03,ENE,61,9.0,14.0,92,0.00,,,0.00,Wunderground v.1.15,2013-04-30 19:30:00,
2013-04-30 15:35:00,64.7,62.0,30.03,East,91,11.0,14.0,91,0.00,,,0.00,Wunderground v.1.15,2013-04-30 19:35:00,
2013-04-30 15:40:00,64.8,62.4,30.03,ENE,72,12.0,12.0,92,0.00,,,0.00,Wunderground v.1.15,2013-04-30 19:40:00,
2013-04-30 15:46:00,64.8,62.4,30.02,NE,50,12.0,15.0,92,0.00,,,0.00,Wunderground v.1.15,2013-04-30 19:46:00,
2013-04-30 15:51:00,65.0,62.6,30.03,ENE,74,10.0,12.0,92,0.00,,,0.00,Wunderground v.1.15,2013-04-30 19:51:00,
2013-04-30 15:56:00,64.7,62.3,30.03,East,83,10.0,13.0,92,0.00,,,0.00,Wunderground v.1.15,2013-04-30 19:56:00,
2013-04-30 16:01:00,64.8,62.4,30.02,ENE,66,11.0,12.0,92,0.00,,,0.00,Wunderground v.1.15,2013-04-30 20:01:00,
2013-04-30 16:06:00,64.8,62.1,30.02,ENE,59,13.0,13.0,91,0.00,,,0.00,Wunderground v.1.15,2013-04-30 20:06:00,
2013-04-30 16:11:00,65.0,62.6,30.02,NE,56,5.0,10.0,92,0.00,,,0.00,Wunderground v.1.15,2013-04-30 20:11:00,
2013-04-30 16:16:00,65.0,62.3,30.03,ENE,78,9.0,14.0,91,0.00,,,0.00,Wunderground v.1.15,2013-04-30 20:16:00,
2013-04-30 16:21:00,65.0,62.3,30.02,East,79,12.0,12.0,91,0.00,,,0.00,Wunderground v.1.15,2013-04-30 20:21:00,
2013-04-30 16:27:00,65.0,62.3,30.02,ENE,71,12.0,13.0,91,0.00,,,0.00,Wunderground v.1.15,2013-04-30 20:27:00,
2013-04-30 16:32:00,65.0,62.3,30.03,East,86,10.0,14.0,91,0.00,,,0.00,Wunderground v.1.15,2013-04-30 20:32:00,
2013-04-30 16:37:00,65.3,62.3,30.03,East,84,10.0,16.0,90,0.00,,,0.00,Wunderground v.1.15,2013-04-30 20:37:00,
2013-04-30 16:42:00,65.2,62.2,30.03,ENE,61,10.0,12.0,90,0.00,,,0.00,Wunderground v.1.15,2013-04-30 20:42:00,
2013-04-30 16:47:00,65.5,63.1,30.03,ENE,78,11.0,12.0,92,0.00,,,0.00,Wunderground v.1.15,2013-04-30 20:47:00,
2013-04-30 16:52:00,65.3,62.3,30.03,ENE,77,12.0,14.0,90,0.00,,,0.00,Wunderground v.1.15,2013-04-30 20:52:00,
2013-04-30 16:57:00,65.2,62.2,30.03,NE,53,10.0,15.0,90,0.00,,,0.00,Wunderground v.1.15,2013-04-30 20:57:00,
2013-04-30 17:02:00,65.2,62.2,30.03,ENE,66,10.0,13.0,90,0.00,,,0.00,Wunderground v.1.15,2013-04-30 21:02:00,
2013-04-30 17:07:00,65.3,62.3,30.03,East,82,10.0,13.0,90,0.00,,,0.00,Wunderground v.1.15,2013-04-30 21:07:00,
2013-04-30 17:13:00,65.2,62.2,30.03,NE,55,11.0,14.0,90,0.00,,,0.00,Wunderground v.1.15,2013-04-30 21:13:00,
2013-04-30 17:18:00,65.5,62.5,30.04,ENE,74,10.0,16.0,90,0.00,,,0.00,Wunderground v.1.15,2013-04-30 21:18:00,
2013-04-30 17:23:00,65.6,62.3,30.03,ENE,71,11.0,12.0,89,0.00,,,0.00,Wunderground v.1.15,2013-04-30 21:23:00,
2013-04-30 17:28:00,65.5,62.2,30.03,ENE,69,12.0,16.0,89,0.00,,,0.00,Wunderground v.1.15,2013-04-30 21:28:00,
2013-04-30 17:33:00,65.5,62.5,30.03,East,92,10.0,12.0,90,0.00,,,0.00,Wunderground v.1.15,2013-04-30 21:33:00,
2013-04-30 17:38:00,65.6,62.3,30.03,ENE,61,10.0,13.0,89,0.00,,,0.00,Wunderground v.1.15,2013-04-30 21:38:00,
2013-04-30 17:43:00,65.4,62.4,30.03,East,88,10.0,13.0,90,0.00,,,0.00,Wunderground v.1.15,2013-04-30 21:43:00,
2013-04-30 17:48:00,65.4,62.1,30.03,ENE,69,11.0,14.0,89,0.00,,,0.00,Wunderground v.1.15,2013-04-30 21:48:00,
2013-04-30 17:53:00,65.7,62.7,30.03,ENE,71,12.0,12.0,90,0.00,,,0.00,Wunderground v.1.15,2013-04-30 21:53:00,
2013-04-30 17:58:00,65.6,62.3,30.03,ENE,78,14.0,14.0,89,0.00,,,0.00,Wunderground v.1.15,2013-04-30 21:58:00,
2013-04-30 18:03:00,65.5,62.2,30.03,East,86,10.0,13.0,89,0.00,,,0.00,Wunderground v.1.15,2013-04-30 22:03:00,
2013-04-30 18:09:00,65.5,62.2,30.03,ENE,69,12.0,13.0,89,0.00,,,0.00,Wunderground v.1.15,2013-04-30 22:09:00,
2013-04-30 18:14:00,65.2,61.9,30.04,ENE,73,9.0,15.0,89,0.00,,,0.00,Wunderground v.1.15,2013-04-30 22:14:00,
2013-04-30 18:19:00,65.0,61.7,30.03,ENE,68,11.0,15.0,89,0.00,,,0.00,Wunderground v.1.15,2013-04-30 22:19:00,
2013-04-30 18:24:00,64.9,61.6,30.04,ENE,67,10.0,14.0,89,0.00,,,0.00,Wunderground v.1.15,2013-04-30 22:24:00,
2013-04-30 18:29:00,64.9,61.6,30.04,ENE,61,10.0,14.0,89,0.00,,,0.00,Wunderground v.1.15,2013-04-30 22:29:00,
2013-04-30 18:34:00,64.9,61.6,30.04,ENE,59,10.0,13.0,89,0.00,,,0.00,Wunderground v.1.15,2013-04-30 22:34:00,
2013-04-30 18:39:00,64.9,61.6,30.04,ENE,77,7.0,14.0,89,0.00,,,0.00,Wunderground v.1.15,2013-04-30 22:39:00,
2013-04-30 18:44:00,64.8,61.5,30.04,ENE,71,6.0,11.0,89,0.00,,,0.00,Wunderground v.1.15,2013-04-30 22:44:00,
2013-04-30 18:49:00,64.7,61.4,30.04,East,81,6.0,13.0,89,0.00,,,0.00,Wunderground v.1.15,2013-04-30 22:49:00,
2013-04-30 18:54:00,64.8,61.8,30.04,ENE,63,6.0,13.0,90,0.00,,,0.00,Wunderground v.1.15,2013-04-30 22:54:00,
2013-04-30 18:59:00,64.8,61.8,30.05,ENE,78,5.0,14.0,90,0.00,,,0.00,Wunderground v.1.15,2013-04-30 22:59:00,
2013-04-30 19:05:00,64.7,61.7,30.04,ENE,77,6.0,12.0,90,0.00,,,0.00,Wunderground v.1.15,2013-04-30 23:05:00,
2013-04-30 19:10:00,64.7,61.7,30.05,ENE,73,7.0,8.0,90,0.00,,,0.00,Wunderground v.1.15,2013-04-30 23:10:00,
2013-04-30 19:15:00,64.6,61.6,30.05,ENE,75,7.0,13.0,90,0.00,,,0.00,Wunderground v.1.15,2013-04-30 23:15:00,
2013-04-30 19:20:00,64.5,61.5,30.05,ENE,74,9.0,9.0,90,0.00,,,0.00,Wunderground v.1.15,2013-04-30 23:20:00,
2013-04-30 19:25:00,64.3,61.3,30.05,ENE,72,7.0,13.0,90,0.00,,,0.00,Wunderground v.1.15,2013-04-30 23:25:00,
2013-04-30 19:30:00,64.2,61.5,30.05,ENE,74,6.0,9.0,91,0.00,,,0.00,Wunderground v.1.15,2013-04-30 23:30:00,
2013-04-30 19:35:00,64.1,61.4,30.05,ENE,71,5.0,12.0,91,0.00,,,0.00,Wunderground v.1.15,2013-04-30 23:35:00,
2013-04-30 19:40:00,64.0,61.3,30.05,ENE,63,9.0,12.0,91,0.00,,,0.00,Wunderground v.1.15,2013-04-30 23:40:00,
2013-04-30 19:45:00,64.0,61.3,30.05,ENE,63,11.0,13.0,91,0.00,,,0.00,Wunderground v.1.15,2013-04-30 23:45:00,
2013-04-30 19:50:00,64.0,61.3,30.05,ENE,66,10.0,12.0,91,0.00,,,0.00,Wunderground v.1.15,2013-04-30 23:50:00,
2013-04-30 19:55:00,63.9,61.2,30.05,East,80,10.0,12.0,91,0.00,,,0.00,Wunderground v.1.15,2013-04-30 23:55:00,
2013-04-30 20:01:00,63.9,61.5,30.05,ENE,70,6.0,9.0,92,0.00,,,0.00,Wunderground v.1.15,2013-05-01 00:01:00,
2013-04-30 20:06:00,63.9,61.5,30.05,ENE,67,8.0,12.0,92,0.00,,,0.00,Wunderground v.1.15,2013-05-01 00:06:00,
2013-04-30 20:11:00,63.9,61.5,30.05,ENE,69,9.0,10.0,92,0.00,,,0.00,Wunderground v.1.15,2013-05-01 00:11:00,
2013-04-30 20:16:00,64.0,61.6,30.06,ENE,70,5.0,10.0,92,0.00,,,0.00,Wunderground v.1.15,2013-05-01 00:16:00,
2013-04-30 20:21:00,64.0,61.6,30.06,ENE,71,6.0,9.0,92,0.00,,,0.00,Wunderground v.1.15,2013-05-01 00:21:00,
2013-04-30 20:26:00,63.9,61.5,30.06,ENE,63,9.0,10.0,92,0.00,,,0.00,Wunderground v.1.15,2013-05-01 00:26:00,
2013-04-30 20:31:00,63.9,61.5,30.06,ENE,57,7.0,11.0,92,0.00,,,0.00,Wunderground v.1.15,2013-05-01 00:31:00,
2013-04-30 20:36:00,63.8,61.4,30.06,ENE,66,4.0,12.0,92,0.00,,,0.00,Wunderground v.1.15,2013-05-01 00:36:00,
2013-04-30 20:41:00,63.8,61.4,30.06,ENE,68,10.0,10.0,92,0.00,,,0.00,Wunderground v.1.15,2013-05-01 00:41:00,
2013-04-30 20:46:00,63.8,61.4,30.06,ENE,61,3.0,12.0,92,0.00,,,0.00,Wunderground v.1.15,2013-05-01 00:46:00,
2013-04-30 20:51:00,63.8,61.4,30.06,ENE,63,10.0,10.0,92,0.00,,,0.00,Wunderground v.1.15,2013-05-01 00:51:00,
2013-04-30 20:56:00,63.7,61.6,30.06,ENE,61,3.0,10.0,93,0.00,,,0.00,Wunderground v.1.15,2013-05-01 00:56:00,
2013-04-30 21:01:00,63.7,61.6,30.06,ENE,65,5.0,6.0,93,0.00,,,0.00,Wunderground v.1.15,2013-05-01 01:01:00,
2013-04-30 21:06:00,63.8,61.7,30.06,ENE,59,7.0,10.0,93,0.00,,,0.00,Wunderground v.1.15,2013-05-01 01:06:00,
2013-04-30 21:11:00,63.7,61.6,30.06,NE,54,6.0,10.0,93,0.00,,,0.00,Wunderground v.1.15,2013-05-01 01:11:00,
2013-04-30 21:16:00,63.7,61.6,30.07,ENE,57,4.0,10.0,93,0.00,,,0.00,Wunderground v.1.15,2013-05-01 01:16:00,
2013-04-30 21:21:00,63.7,61.6,30.07,ENE,58,9.0,10.0,93,0.00,,,0.00,Wunderground v.1.15,2013-05-01 01:21:00,
2013-04-30 21:26:00,63.7,61.6,30.07,NE,54,10.0,11.0,93,0.00,,,0.00,Wunderground v.1.15,2013-05-01 01:26:00,
2013-04-30 21:32:00,63.8,61.7,30.07,NE,53,9.0,12.0,93,0.00,,,0.00,Wunderground v.1.15,2013-05-01 01:32:00,
2013-04-30 21:37:00,63.8,61.7,30.07,NE,49,8.0,12.0,93,0.00,,,0.00,Wunderground v.1.15,2013-05-01 01:37:00,
2013-04-30 21:42:00,63.9,61.8,30.07,NE,48,6.0,10.0,93,0.00,,,0.00,Wunderground v.1.15,2013-05-01 01:42:00,
2013-04-30 21:47:00,63.9,62.1,30.08,NE,54,8.0,11.0,94,0.00,,,0.00,Wunderground v.1.15,2013-05-01 01:47:00,
2013-04-30 21:52:00,63.9,61.8,30.08,NE,53,5.0,8.0,93,0.00,,,0.00,Wunderground v.1.15,2013-05-01 01:52:00,
2013-04-30 21:57:00,63.9,61.8,30.08,NE,54,5.0,9.0,93,0.00,,,0.00,Wunderground v.1.15,2013-05-01 01:57:00,
2013-04-30 22:02:00,64.0,61.9,30.08,NE,54,5.0,7.0,93,0.00,,,0.00,Wunderground v.1.15,2013-05-01 02:02:00,
2013-04-30 22:07:00,63.9,61.8,30.08,NE,55,6.0,9.0,93,0.00,,,0.00,Wunderground v.1.15,2013-05-01 02:07:00,
2013-04-30 22:13:00,63.8,61.7,30.08,NNE,33,8.0,11.0,93,0.00,,,0.00,Wunderground v.1.15,2013-05-01 02:13:00,
2013-04-30 22:18:00,63.9,61.5,30.08,NNE,30,7.0,11.0,92,0.00,,,0.00,Wunderground v.1.15,2013-05-01 02:18:00,
2013-04-30 22:23:00,64.1,61.4,30.08,NE,36,9.0,12.0,91,0.00,,,0.00,Wunderground v.1.15,2013-05-01 02:23:00,
2013-04-30 22:28:00,64.3,61.3,30.08,NE,35,11.0,15.0,90,0.00,,,0.00,Wunderground v.1.15,2013-05-01 02:28:00,
2013-04-30 22:33:00,64.2,61.2,30.09,NE,40,10.0,15.0,90,0.00,,,0.00,Wunderground v.1.15,2013-05-01 02:33:00,
2013-04-30 22:38:00,64.1,61.1,30.09,NE,39,11.0,15.0,90,0.00,,,0.00,Wunderground v.1.15,2013-05-01 02:38:00,
2013-04-30 22:43:00,64.0,61.0,30.09,NE,44,11.0,12.0,90,0.00,,,0.00,Wunderground v.1.15,2013-05-01 02:43:00,
2013-04-30 22:48:00,63.9,60.6,30.09,NNE,32,9.0,13.0,89,0.00,,,0.00,Wunderground v.1.15,2013-05-01 02:48:00,
2013-04-30 22:53:00,63.9,60.9,30.09,NE,41,7.0,11.0,90,0.00,,,0.00,Wunderground v.1.15,2013-05-01 02:53:00,
2013-04-30 22:58:00,63.8,60.8,30.09,NNE,23,10.0,12.0,90,0.00,,,0.00,Wunderground v.1.15,2013-05-01 02:58:00,
2013-04-30 23:03:00,63.6,60.6,30.09,NNE,32,5.0,13.0,90,0.00,,,0.00,Wunderground v.1.15,2013-05-01 03:03:00,
2013-04-30 23:09:00,63.7,60.7,30.09,NNE,32,7.0,13.0,90,0.00,,,0.00,Wunderground v.1.15,2013-05-01 03:09:00,
2013-04-30 23:14:00,63.6,60.6,30.09,NE,44,10.0,11.0,90,0.00,,,0.00,Wunderground v.1.15,2013-05-01 03:14:00,
2013-04-30 23:19:00,63.5,60.5,30.08,NE,48,10.0,12.0,90,0.00,,,0.00,Wunderground v.1.15,2013-05-01 03:19:00,
2013-04-30 23:24:00,63.3,60.3,30.08,NE,41,14.0,14.0,90,0.00,,,0.00,Wunderground v.1.15,2013-05-01 03:24:00,
2013-04-30 23:29:00,63.2,60.5,30.08,NNE,30,11.0,14.0,91,0.00,,,0.00,Wunderground v.1.15,2013-05-01 03:29:00,
2013-04-30 23:34:00,63.1,60.4,30.08,NE,49,11.0,12.0,91,0.00,,,0.00,Wunderground v.1.15,2013-05-01 03:34:00,
2013-04-30 23:39:00,62.8,59.8,30.08,NE,46,12.0,13.0,90,0.00,,,0.00,Wunderground v.1.15,2013-05-01 03:39:00,
2013-04-30 23:44:00,62.6,59.9,30.08,NNE,24,11.0,16.0,91,0.00,,,0.00,Wunderground v.1.15,2013-05-01 03:44:00,
2013-04-30 23:49:00,62.5,59.8,30.08,NNE,30,10.0,16.0,91,0.00,,,0.00,Wunderground v.1.15,2013-05-01 03:49:00,
2013-04-30 23:54:00,62.4,59.7,30.08,NNE,27,13.0,13.0,91,0.00,,,0.00,Wunderground v.1.15,2013-05-01 03:54:00,
2013-04-30 23:59:00,62.3,59.9,30.08,NNE,26,11.0,14.0,92,0.00,,,0.00,Wunderground v.1.15,2013-05-01 03:59:00,